createdAt,value
2023-05-09T00:00:27.004Z,19.70
2023-05-09T00:02:55.113Z,19.70
2023-05-09T00:05:23.166Z,19.70
2023-05-09T00:07:52.632Z,19.60
2023-05-09T00:10:20.901Z,19.50
2023-05-09T00:12:52.252Z,19.50
2023-05-09T00:15:20.703Z,19.50
2023-05-09T00:17:49.141Z,19.50
2023-05-09T00:20:17.309Z,19.50
2023-05-09T00:22:46.646Z,19.50
2023-05-09T00:25:14.975Z,19.30
2023-05-09T00:27:44.269Z,19.40
2023-05-09T00:30:14.074Z,19.40
2023-05-09T00:32:42.247Z,19.30
2023-05-09T00:35:11.051Z,19.40
2023-05-09T00:37:39.127Z,19.40
2023-05-09T00:40:09.166Z,19.30
2023-05-09T00:42:37.277Z,19.30
2023-05-09T00:45:08.826Z,19.30
2023-05-09T00:47:39.636Z,19.30
2023-05-09T00:50:10.259Z,19.30
2023-05-09T00:52:40.175Z,19.20
2023-05-09T00:55:09.670Z,19.20
2023-05-09T00:57:37.956Z,19.20
2023-05-09T01:00:13.580Z,19.30
2023-05-09T01:02:43.987Z,19.30
2023-05-09T01:05:13.942Z,19.30
2023-05-09T01:07:50.923Z,19.40
2023-05-09T01:10:29.307Z,19.30
2023-05-09T01:13:04.765Z,19.20
2023-05-09T01:15:38.414Z,19.30
2023-05-09T01:18:13.964Z,19.30
2023-05-09T01:20:47.092Z,19.40
2023-05-09T01:24:00.482Z,19.40
2023-05-09T01:26:45.856Z,19.40
2023-05-09T01:29:39.646Z,19.40
2023-05-09T01:32:11.210Z,19.40
2023-05-09T01:34:43.165Z,19.30
2023-05-09T01:37:14.244Z,19.10
2023-05-09T01:39:49.574Z,19.00
2023-05-09T01:42:21.659Z,19.10
2023-05-09T01:44:52.164Z,19.10
2023-05-09T01:47:22.054Z,19.00
2023-05-09T01:49:52.153Z,19.00
2023-05-09T01:52:22.015Z,19.00
2023-05-09T01:54:52.002Z,19.00
2023-05-09T01:57:23.291Z,19.00
2023-05-09T01:59:53.464Z,19.00
2023-05-09T02:02:22.682Z,19.00
2023-05-09T02:04:52.011Z,19.10
2023-05-09T02:07:23.375Z,19.10
2023-05-09T02:09:57.396Z,19.10
2023-05-09T02:12:26.589Z,19.00
2023-05-09T02:14:58.754Z,18.90
2023-05-09T02:17:29.832Z,18.70
2023-05-09T02:19:58.375Z,18.60
2023-05-09T02:22:27.085Z,18.60
2023-05-09T02:24:58.020Z,18.80
2023-05-09T02:27:27.408Z,18.80
2023-05-09T02:29:59.967Z,18.90
2023-05-09T02:32:32.317Z,18.90
2023-05-09T02:35:03.935Z,18.80
2023-05-09T02:37:35.685Z,18.80
2023-05-09T02:40:05.434Z,18.80
2023-05-09T02:42:34.449Z,18.90
2023-05-09T02:45:04.325Z,18.70
2023-05-09T02:47:33.014Z,18.50
2023-05-09T02:50:01.867Z,18.50
2023-05-09T02:52:30.612Z,18.60
2023-05-09T02:54:59.360Z,18.70
2023-05-09T02:57:27.815Z,18.90
2023-05-09T02:59:56.475Z,18.90
2023-05-09T03:02:26.724Z,18.70
2023-05-09T03:04:55.689Z,18.50
2023-05-09T03:07:23.699Z,18.60
2023-05-09T03:09:53.940Z,18.70
2023-05-09T03:12:24.316Z,18.60
2023-05-09T03:14:55.685Z,18.30
2023-05-09T03:17:24.200Z,18.30
2023-05-09T03:19:54.515Z,18.30
2023-05-09T03:22:22.601Z,18.30
2023-05-09T03:25:02.137Z,18.30
2023-05-09T03:27:30.751Z,18.30
2023-05-09T03:29:59.203Z,18.30
2023-05-09T03:32:28.403Z,18.50
2023-05-09T03:34:58.185Z,18.30
2023-05-09T03:37:27.977Z,18.40
2023-05-09T03:39:56.584Z,18.40
2023-05-09T03:42:24.686Z,18.50
2023-05-09T03:45:01.013Z,18.60
2023-05-09T03:47:30.853Z,18.80
2023-05-09T03:50:05.360Z,18.90
2023-05-09T03:52:34.635Z,18.90
2023-05-09T03:55:03.511Z,18.80
2023-05-09T03:57:36.422Z,18.50
2023-05-09T04:00:07.920Z,18.40
2023-05-09T04:02:43.369Z,18.40
2023-05-09T04:05:22.575Z,18.30
2023-05-09T04:07:54.374Z,18.30
2023-05-09T04:10:23.004Z,17.80
2023-05-09T04:12:52.094Z,18.00
2023-05-09T04:15:21.128Z,17.90
2023-05-09T04:17:50.482Z,17.50
2023-05-09T04:20:18.668Z,17.60
2023-05-09T04:22:48.232Z,17.80
2023-05-09T04:25:22.186Z,18.00
2023-05-09T04:27:50.893Z,17.70
2023-05-09T04:30:21.314Z,17.90
2023-05-09T04:32:51.216Z,18.20
2023-05-09T04:35:20.803Z,18.30
2023-05-09T04:37:53.068Z,18.20
2023-05-09T04:40:22.041Z,18.20
2023-05-09T04:43:00.312Z,18.20
2023-05-09T04:45:32.214Z,18.40
2023-05-09T04:48:01.792Z,18.10
2023-05-09T04:50:31.517Z,18.20
2023-05-09T04:53:01.456Z,18.50
2023-05-09T04:55:29.549Z,18.50
2023-05-09T04:57:58.546Z,18.60
2023-05-09T05:00:29.483Z,18.30
2023-05-09T05:02:58.455Z,18.50
2023-05-09T05:05:28.941Z,18.30
2023-05-09T05:07:57.248Z,18.20
2023-05-09T05:10:40.460Z,18.30
2023-05-09T05:13:11.538Z,18.60
2023-05-09T05:15:45.484Z,18.80
2023-05-09T05:18:15.178Z,18.90
2023-05-09T05:20:43.696Z,18.90
2023-05-09T05:23:12.546Z,18.80
2023-05-09T05:25:41.949Z,18.60
2023-05-09T05:28:10.401Z,18.80
2023-05-09T05:30:40.917Z,18.90
2023-05-09T05:33:10.462Z,19.00
2023-05-09T05:35:38.939Z,19.10
2023-05-09T05:38:09.017Z,19.10
2023-05-09T05:40:39.437Z,19.10
2023-05-09T05:43:10.024Z,19.10
2023-05-09T05:45:40.246Z,18.90
2023-05-09T05:48:11.648Z,18.90
2023-05-09T05:50:40.443Z,19.00
2023-05-09T05:53:08.700Z,19.10
2023-05-09T05:55:39.518Z,19.10
2023-05-09T05:58:08.925Z,19.10
2023-05-09T06:00:37.556Z,19.10
2023-05-09T06:03:07.673Z,19.10
2023-05-09T06:05:44.467Z,19.20
2023-05-09T06:08:13.391Z,19.10
2023-05-09T06:10:41.617Z,19.20
2023-05-09T06:13:11.599Z,19.00
2023-05-09T06:15:45.519Z,19.20
2023-05-09T06:18:13.728Z,19.10
2023-05-09T06:20:41.742Z,18.80
2023-05-09T06:23:12.891Z,18.60
2023-05-09T06:25:41.456Z,18.80
2023-05-09T06:28:10.856Z,19.00
2023-05-09T06:30:38.886Z,19.20
2023-05-09T06:33:07.521Z,19.30
2023-05-09T06:35:36.143Z,19.20
2023-05-09T06:38:04.310Z,19.10
2023-05-09T06:40:32.361Z,19.30
2023-05-09T06:43:00.531Z,19.30
2023-05-09T06:45:30.750Z,19.40
2023-05-09T06:47:58.857Z,19.10
2023-05-09T06:50:26.939Z,19.40
2023-05-09T06:52:55.069Z,19.70
2023-05-09T06:55:23.547Z,19.90
2023-05-09T06:57:51.623Z,19.80
2023-05-09T07:00:21.311Z,19.90
2023-05-09T07:02:50.867Z,19.90
2023-05-09T07:05:20.259Z,20.00
2023-05-09T07:07:48.782Z,20.10
2023-05-09T07:10:17.061Z,19.80
2023-05-09T07:12:45.091Z,19.80
2023-05-09T07:15:13.870Z,19.20
2023-05-09T07:17:43.139Z,19.00
2023-05-09T07:20:13.017Z,19.10
2023-05-09T07:22:41.266Z,18.80
2023-05-09T07:25:10.200Z,18.40
2023-05-09T07:27:39.153Z,18.70
2023-05-09T07:30:11.058Z,19.20
2023-05-09T07:32:39.116Z,19.10
2023-05-09T07:35:07.608Z,19.30
2023-05-09T07:37:37.477Z,19.30
2023-05-09T07:40:06.780Z,19.30
2023-05-09T07:42:34.888Z,19.20
2023-05-09T07:45:06.488Z,19.40
2023-05-09T07:47:34.998Z,19.60
2023-05-09T07:50:03.176Z,19.60
2023-05-09T07:52:31.209Z,19.60
2023-05-09T07:55:01.011Z,19.70
2023-05-09T07:57:29.208Z,19.90
2023-05-09T07:59:57.317Z,20.00
2023-05-09T08:02:25.525Z,20.00
2023-05-09T08:04:54.530Z,19.80
2023-05-09T08:07:22.621Z,19.70
2023-05-09T08:09:50.660Z,19.70
2023-05-09T08:12:20.082Z,19.90
2023-05-09T08:14:48.531Z,19.50
2023-05-09T08:17:16.866Z,19.60
2023-05-09T08:19:45.576Z,19.70
2023-05-09T08:22:18.366Z,19.80
2023-05-09T08:24:47.481Z,20.00
2023-05-09T08:27:16.120Z,19.90
2023-05-09T08:29:46.172Z,19.70
2023-05-09T08:32:14.427Z,19.40
2023-05-09T08:34:42.535Z,19.20
2023-05-09T08:37:12.207Z,19.50
2023-05-09T08:39:42.154Z,19.70
2023-05-09T08:42:11.278Z,19.80
2023-05-09T08:44:39.440Z,19.80
2023-05-09T08:47:11.295Z,19.90
2023-05-09T08:49:41.088Z,19.40
2023-05-09T08:52:14.638Z,19.30
2023-05-09T08:54:42.872Z,19.60
2023-05-09T08:57:12.200Z,19.90
2023-05-09T08:59:43.472Z,20.00
2023-05-09T09:02:15.114Z,20.10
2023-05-09T09:04:45.377Z,19.80
2023-05-09T09:07:16.809Z,19.90
2023-05-09T09:09:47.809Z,20.20
2023-05-09T09:12:17.938Z,20.00
2023-05-09T09:14:50.702Z,20.00
2023-05-09T09:17:22.511Z,19.70
2023-05-09T09:19:56.102Z,19.80
2023-05-09T09:22:26.561Z,20.00
2023-05-09T09:24:54.725Z,20.20
2023-05-09T09:27:23.697Z,20.50
2023-05-09T09:29:51.704Z,20.60
2023-05-09T09:32:35.717Z,20.80
2023-05-09T09:35:08.599Z,21.00
2023-05-09T09:37:40.188Z,19.80
2023-05-09T09:40:10.482Z,20.20
2023-05-09T09:42:43.958Z,20.50
2023-05-09T09:45:13.683Z,20.70
2023-05-09T09:47:44.855Z,20.80
2023-05-09T09:50:16.804Z,20.70
2023-05-09T09:52:51.370Z,20.70
2023-05-09T09:55:21.012Z,20.70
2023-05-09T09:57:50.104Z,20.40
2023-05-09T10:00:21.568Z,20.60
2023-05-09T10:02:53.285Z,20.70
2023-05-09T10:05:24.345Z,20.80
2023-05-09T10:07:58.069Z,21.10
2023-05-09T10:10:28.743Z,21.30
2023-05-09T10:13:04.236Z,21.40
2023-05-09T10:15:52.386Z,21.30
2023-05-09T10:18:29.061Z,21.20
2023-05-09T10:21:00.927Z,21.40
2023-05-09T10:23:31.372Z,21.60
2023-05-09T10:26:06.254Z,20.90
2023-05-09T10:28:40.198Z,20.90
2023-05-09T10:31:16.456Z,21.20
2023-05-09T10:33:48.542Z,21.00
2023-05-09T10:36:18.756Z,20.80
2023-05-09T10:38:49.771Z,20.50
2023-05-09T10:41:18.710Z,20.70
2023-05-09T10:43:48.047Z,20.90
2023-05-09T10:46:17.825Z,20.90
2023-05-09T10:48:49.892Z,21.10
2023-05-09T10:51:19.065Z,21.40
2023-05-09T10:53:48.509Z,21.30
2023-05-09T10:56:28.363Z,21.00
2023-05-09T10:58:57.325Z,21.40
2023-05-09T11:01:35.429Z,21.60
2023-05-09T11:04:12.340Z,21.00
2023-05-09T11:06:50.071Z,20.70
2023-05-09T11:09:27.958Z,21.20
2023-05-09T11:11:59.673Z,21.20
2023-05-09T11:14:32.312Z,21.20
2023-05-09T11:17:03.091Z,21.70
2023-05-09T11:19:59.096Z,21.60
2023-05-09T11:22:28.881Z,21.90
2023-05-09T11:25:06.989Z,22.00
2023-05-09T11:27:42.328Z,21.80
2023-05-09T11:30:14.830Z,21.20
2023-05-09T11:32:46.458Z,21.20
2023-05-09T11:35:18.936Z,21.00
2023-05-09T11:37:50.398Z,21.30
2023-05-09T11:40:20.010Z,21.40
2023-05-09T11:42:50.492Z,21.80
2023-05-09T11:45:19.789Z,21.80
2023-05-09T11:47:48.976Z,21.70
2023-05-09T11:50:21.007Z,21.60
2023-05-09T11:52:49.771Z,21.70
2023-05-09T11:55:21.158Z,21.90
2023-05-09T11:57:50.432Z,21.80
2023-05-09T12:00:21.024Z,21.60
2023-05-09T12:02:49.767Z,21.40
2023-05-09T12:05:21.397Z,21.40
2023-05-09T12:07:51.430Z,21.40
2023-05-09T12:10:22.726Z,21.60
2023-05-09T12:12:53.478Z,21.20
2023-05-09T12:15:22.201Z,21.30
2023-05-09T12:18:03.893Z,21.50
2023-05-09T12:20:43.250Z,21.60
2023-05-09T12:23:12.958Z,21.70
2023-05-09T12:25:41.196Z,21.60
2023-05-09T12:28:10.703Z,21.50
2023-05-09T12:30:38.886Z,21.10
2023-05-09T12:33:07.905Z,20.70
2023-05-09T12:35:38.568Z,20.50
2023-05-09T12:38:08.373Z,20.80
2023-05-09T12:40:36.377Z,20.70
2023-05-09T12:43:05.284Z,20.60
2023-05-09T12:45:33.904Z,20.90
2023-05-09T12:48:05.497Z,20.70
2023-05-09T12:50:36.278Z,20.80
2023-05-09T12:53:05.632Z,21.00
2023-05-09T12:55:41.074Z,21.30
2023-05-09T12:58:09.624Z,21.70
2023-05-09T13:00:44.406Z,21.70
2023-05-09T13:03:25.803Z,22.00
2023-05-09T13:05:58.613Z,21.80
2023-05-09T13:08:27.020Z,22.20
2023-05-09T13:11:07.823Z,22.40
2023-05-09T13:13:43.487Z,22.40
2023-05-09T13:16:14.047Z,22.60
2023-05-09T13:18:44.670Z,22.80
2023-05-09T13:21:13.741Z,22.80
2023-05-09T13:23:42.095Z,22.90
2023-05-09T13:26:11.956Z,23.00
2023-05-09T13:28:39.995Z,22.60
2023-05-09T13:31:08.619Z,22.60
2023-05-09T13:33:37.633Z,22.50
2023-05-09T13:36:06.549Z,22.30
2023-05-09T13:38:39.103Z,22.20
2023-05-09T13:41:07.745Z,21.60
2023-05-09T13:43:39.756Z,21.70
2023-05-09T13:46:07.852Z,21.80
2023-05-09T13:48:37.746Z,22.00
2023-05-09T13:51:07.941Z,22.20
2023-05-09T13:53:38.702Z,22.50
2023-05-09T13:56:10.759Z,22.60
2023-05-09T13:58:40.107Z,22.60
2023-05-09T14:01:09.756Z,22.50
2023-05-09T14:03:38.527Z,22.60
2023-05-09T14:06:09.619Z,22.50
2023-05-09T14:08:37.612Z,22.40
2023-05-09T14:11:08.784Z,22.50
2023-05-09T14:13:37.525Z,22.20
2023-05-09T14:16:08.289Z,22.30
2023-05-09T14:18:37.283Z,22.20
2023-05-09T14:21:05.583Z,22.20
2023-05-09T14:23:35.768Z,22.20
2023-05-09T14:26:03.952Z,22.20
2023-05-09T14:28:33.031Z,22.10
2023-05-09T14:31:01.374Z,22.10
2023-05-09T14:33:35.226Z,21.90
2023-05-09T14:36:04.068Z,22.00
2023-05-09T14:38:34.120Z,22.00
2023-05-09T14:41:03.149Z,21.90
2023-05-09T14:43:46.192Z,21.90
2023-05-09T14:46:15.838Z,21.80
2023-05-09T14:48:45.393Z,21.70
2023-05-09T14:51:14.849Z,21.60
2023-05-09T14:53:43.108Z,21.10
2023-05-09T14:56:12.705Z,20.90
2023-05-09T14:58:40.769Z,21.10
2023-05-09T15:01:09.744Z,21.20
2023-05-09T15:03:40.845Z,21.30
2023-05-09T15:06:10.380Z,21.40
2023-05-09T15:08:40.923Z,21.40
2023-05-09T15:11:09.005Z,21.50
2023-05-09T15:13:38.873Z,21.60
2023-05-09T15:16:08.686Z,21.70
2023-05-09T15:18:37.237Z,21.60
2023-05-09T15:21:06.735Z,21.60
2023-05-09T15:23:36.877Z,21.60
2023-05-09T15:26:08.591Z,21.40
2023-05-09T15:28:38.378Z,21.20
2023-05-09T15:31:07.476Z,21.00
2023-05-09T15:33:37.881Z,21.00
2023-05-09T15:36:10.877Z,20.90
2023-05-09T15:38:41.034Z,20.90
2023-05-09T15:41:09.383Z,20.60
2023-05-09T15:43:37.580Z,20.00
2023-05-09T15:46:06.835Z,19.80
2023-05-09T15:48:34.854Z,19.80
2023-05-09T15:51:04.414Z,19.80
2023-05-09T15:53:34.813Z,19.70
2023-05-09T15:56:04.846Z,19.80
2023-05-09T15:58:33.478Z,20.00
2023-05-09T16:01:08.101Z,20.10
2023-05-09T16:03:36.375Z,20.10
2023-05-09T16:06:05.429Z,19.90
2023-05-09T16:08:33.496Z,19.90
2023-05-09T16:11:02.438Z,20.00
2023-05-09T16:13:33.638Z,19.90
2023-05-09T16:16:06.534Z,19.40
2023-05-09T16:18:34.675Z,18.80
2023-05-09T16:21:02.720Z,18.60
2023-05-09T16:23:32.910Z,18.70
2023-05-09T16:26:00.933Z,18.90
2023-05-09T16:28:32.860Z,18.90
2023-05-09T16:31:05.164Z,18.70
2023-05-09T16:33:33.598Z,18.50
2023-05-09T16:36:03.876Z,18.70
2023-05-09T16:38:31.942Z,18.90
2023-05-09T16:41:00.901Z,19.00
2023-05-09T16:43:28.914Z,19.20
2023-05-09T16:45:58.061Z,19.30
2023-05-09T16:48:27.565Z,19.50
2023-05-09T16:50:55.740Z,19.50
2023-05-09T16:53:25.361Z,19.50
2023-05-09T16:55:55.236Z,19.60
2023-05-09T16:58:24.247Z,19.60
2023-05-09T17:00:53.349Z,19.50
2023-05-09T17:03:24.238Z,19.40
2023-05-09T17:05:53.823Z,19.40
2023-05-09T17:08:24.070Z,19.40
2023-05-09T17:10:52.864Z,19.40
2023-05-09T17:13:21.955Z,19.40
2023-05-09T17:15:52.472Z,19.40
2023-05-09T17:18:33.179Z,19.50
2023-05-09T17:21:07.376Z,19.60
2023-05-09T17:23:35.644Z,19.60
2023-05-09T17:26:03.736Z,19.50
2023-05-09T17:28:33.932Z,19.50
2023-05-09T17:31:03.208Z,19.40
2023-05-09T17:33:31.647Z,19.40
2023-05-09T17:36:00.914Z,19.40
2023-05-09T17:38:31.030Z,19.50
2023-05-09T17:40:59.303Z,19.60
2023-05-09T17:43:28.352Z,19.60
2023-05-09T17:45:57.381Z,19.70
2023-05-09T17:48:25.553Z,19.70
2023-05-09T17:50:54.261Z,19.70
2023-05-09T17:53:24.104Z,19.50
2023-05-09T17:55:53.841Z,19.60
2023-05-09T17:58:24.170Z,19.70
2023-05-09T18:00:56.070Z,19.30
2023-05-09T18:03:24.470Z,19.10
2023-05-09T18:05:52.620Z,18.90
2023-05-09T18:08:21.407Z,18.90
2023-05-09T18:10:49.731Z,19.00
2023-05-09T18:13:24.175Z,19.20
2023-05-09T18:15:54.411Z,19.50
2023-05-09T18:18:23.456Z,19.70
2023-05-09T18:20:51.548Z,19.80
2023-05-09T18:23:20.038Z,19.80
2023-05-09T18:25:48.970Z,19.90
2023-05-09T18:28:24.588Z,19.90
2023-05-09T18:30:56.198Z,20.00
2023-05-09T18:33:25.477Z,20.00
2023-05-09T18:35:54.617Z,20.10
2023-05-09T18:38:23.774Z,20.00
2023-05-09T18:40:52.126Z,20.10
2023-05-09T18:43:22.013Z,20.20
2023-05-09T18:45:50.640Z,20.20
2023-05-09T18:48:20.003Z,20.20
2023-05-09T18:50:52.605Z,20.20
2023-05-09T18:53:21.209Z,20.10
2023-05-09T18:55:49.962Z,20.00
2023-05-09T18:58:17.992Z,20.00
2023-05-09T19:00:46.946Z,20.00
2023-05-09T19:03:16.145Z,20.10
2023-05-09T19:05:47.114Z,20.20
2023-05-09T19:08:15.881Z,20.20
2023-05-09T19:10:43.941Z,20.10
2023-05-09T19:13:13.990Z,20.20
2023-05-09T19:15:43.973Z,20.30
2023-05-09T19:18:12.679Z,20.20
2023-05-09T19:20:41.227Z,20.20
2023-05-09T19:23:11.965Z,20.10
2023-05-09T19:25:40.897Z,20.10
2023-05-09T19:28:09.529Z,20.00
2023-05-09T19:30:37.701Z,19.60
2023-05-09T19:33:06.791Z,18.90
2023-05-09T19:35:37.256Z,18.50
2023-05-09T19:38:05.518Z,18.40
2023-05-09T19:40:35.405Z,18.40
2023-05-09T19:43:03.907Z,18.40
2023-05-09T19:45:32.100Z,18.40
2023-05-09T19:48:00.591Z,18.40
2023-05-09T19:50:28.797Z,18.40
2023-05-09T19:52:57.756Z,18.40
2023-05-09T19:55:25.993Z,18.50
2023-05-09T19:57:55.418Z,18.50
2023-05-09T20:00:24.467Z,18.60
2023-05-09T20:02:52.622Z,18.60
2023-05-09T20:05:21.750Z,18.70
2023-05-09T20:07:51.178Z,18.70
2023-05-09T20:10:19.349Z,18.60
2023-05-09T20:12:49.049Z,18.40
2023-05-09T20:15:18.686Z,18.50
2023-05-09T20:17:48.062Z,18.60
2023-05-09T20:20:16.345Z,18.60
2023-05-09T20:22:47.086Z,18.60
2023-05-09T20:25:15.283Z,18.60
2023-05-09T20:27:44.017Z,18.60
2023-05-09T20:30:13.422Z,18.60
2023-05-09T20:32:43.048Z,18.60
2023-05-09T20:35:15.637Z,18.70
2023-05-09T20:37:43.779Z,18.70
2023-05-09T20:40:13.784Z,18.70
2023-05-09T20:42:42.161Z,18.60
2023-05-09T20:45:31.885Z,18.70
2023-05-09T20:48:01.670Z,18.70
2023-05-09T20:50:30.496Z,18.60
2023-05-09T20:52:58.663Z,18.60
2023-05-09T20:55:26.739Z,18.20
2023-05-09T20:57:54.750Z,18.10
2023-05-09T21:00:24.069Z,17.90
2023-05-09T21:02:57.610Z,17.80
2023-05-09T21:05:28.649Z,17.90
2023-05-09T21:07:57.121Z,18.00
2023-05-09T21:10:25.841Z,18.00
2023-05-09T21:12:55.186Z,18.20
2023-05-09T21:15:23.817Z,17.90
2023-05-09T21:17:52.050Z,18.00
2023-05-09T21:20:22.360Z,18.00
2023-05-09T21:22:52.614Z,18.00
2023-05-09T21:25:21.416Z,18.00
2023-05-09T21:27:49.378Z,18.00
2023-05-09T21:30:19.801Z,17.80
2023-05-09T21:32:47.816Z,17.90
2023-05-09T21:35:15.852Z,17.80
2023-05-09T21:37:44.798Z,17.60
2023-05-09T21:40:15.906Z,17.80
2023-05-09T21:42:44.688Z,17.90
2023-05-09T21:45:15.520Z,17.80
2023-05-09T21:47:43.991Z,17.70
2023-05-09T21:50:12.112Z,17.70
2023-05-09T21:52:41.281Z,17.60
2023-05-09T21:55:10.074Z,17.50
2023-05-09T21:57:40.433Z,17.40
2023-05-09T22:00:14.250Z,17.00
2023-05-09T22:02:46.901Z,16.90
2023-05-09T22:05:15.098Z,16.80
2023-05-09T22:07:46.129Z,16.90
2023-05-09T22:10:16.352Z,17.10
2023-05-09T22:12:46.613Z,17.30
2023-05-09T22:15:14.767Z,17.30
2023-05-09T22:17:45.096Z,17.20
2023-05-09T22:20:14.745Z,17.30
2023-05-09T22:22:43.075Z,16.80
2023-05-09T22:25:11.396Z,17.10
2023-05-09T22:27:40.394Z,16.80
2023-05-09T22:30:13.358Z,16.20
2023-05-09T22:32:42.371Z,16.30
2023-05-09T22:35:11.150Z,16.50
2023-05-09T22:37:39.408Z,16.40
2023-05-09T22:40:09.681Z,16.40
2023-05-09T22:42:38.021Z,16.20
2023-05-09T22:45:07.294Z,16.20
2023-05-09T22:47:38.872Z,16.30
2023-05-09T22:50:08.302Z,16.40
2023-05-09T22:52:39.865Z,16.40
2023-05-09T22:55:08.958Z,16.60
2023-05-09T22:57:37.454Z,16.40
2023-05-09T23:00:06.717Z,16.40
2023-05-09T23:02:35.210Z,16.40
2023-05-09T23:05:07.177Z,16.60
2023-05-09T23:07:35.906Z,16.30
2023-05-09T23:10:04.361Z,16.30
2023-05-09T23:12:33.088Z,16.10
2023-05-09T23:15:01.194Z,16.10
2023-05-09T23:17:29.427Z,16.30
2023-05-09T23:19:58.235Z,16.40
2023-05-09T23:22:30.874Z,16.40
2023-05-09T23:25:00.701Z,16.70
2023-05-09T23:27:31.486Z,16.50
2023-05-09T23:29:59.545Z,16.40
2023-05-09T23:32:27.642Z,16.10
2023-05-09T23:34:57.152Z,16.10
2023-05-09T23:37:25.615Z,16.20
2023-05-09T23:39:55.039Z,16.00
2023-05-09T23:42:23.525Z,16.40
2023-05-09T23:44:52.502Z,15.90
2023-05-09T23:47:20.533Z,16.10
2023-05-09T23:49:48.999Z,15.90
2023-05-09T23:52:17.380Z,16.10
2023-05-09T23:54:45.837Z,15.70
2023-05-09T23:57:15.226Z,15.90
2023-05-09T23:59:48.187Z,15.50
